Time;durP1;ratioP1;P1;durP2;ratioP2;P2;SDS_P1;SDS_P2;PMS_P1;PMS_P2;Temp;Humidity;BMP_temperature;BMP_pressure;BME280_temperature;BME280_humidity;BME280_pressure;Samples;Min_cycle;Max_cycle;Signal;HPM_P1;HPM_P2
2024/04/13 00:03:00;;;;;;;7.77;4.70;;;;;;;11.78;94.86;98835.94;6839593;26;20322;-56
2024/04/13 00:06:03;;;;;;;6.83;5.00;;;;;;;11.73;96.04;98849.13;6828496;26;20286;-55
2024/04/13 00:09:06;;;;;;;7.63;4.87;;;;;;;11.70;96.54;98836.19;6836485;26;20241;-58
2024/04/13 00:12:08;;;;;;;5.10;4.17;;;;;;;11.61;98.30;98837.53;6813570;26;20233;-58
2024/04/13 00:15:11;;;;;;;7.23;4.40;;;;;;;11.60;98.39;98839.38;6838729;26;20276;-58
2024/04/13 00:18:14;;;;;;;8.10;5.37;;;;;;;11.57;98.55;98837.13;6826115;26;20316;-58
2024/04/13 00:21:16;;;;;;;5.10;4.23;;;;;;;11.69;97.16;98845.25;6823557;26;20230;-58
2024/04/13 00:24:19;;;;;;;8.30;5.20;;;;;;;11.48;99.03;98843.00;6817936;26;20289;-58
2024/04/13 00:27:23;;;;;;;5.10;4.20;;;;;;;11.40;99.56;98849.41;6823735;26;20364;-58
2024/04/13 00:30:25;;;;;;;7.73;4.97;;;;;;;11.55;98.39;98849.91;6834280;26;20287;-58
2024/04/13 00:33:28;;;;;;;6.13;4.23;;;;;;;11.36;99.64;98837.53;6796407;26;20245;-58
2024/04/13 00:36:35;;;;;;;7.80;5.30;;;;;;;11.32;100.00;98836.34;6823608;26;20237;-58
2024/04/13 00:39:38;;;;;;;6.03;4.70;;;;;;;11.30;100.00;98833.91;6816909;26;20249;-56
2024/04/13 00:42:41;;;;;;;7.40;4.97;;;;;;;11.31;100.00;98840.84;6836139;26;20259;-58
2024/04/13 00:45:44;;;;;;;7.10;5.70;;;;;;;11.31;100.00;98843.53;6826390;26;20233;-56
2024/04/13 00:48:49;;;;;;;7.17;6.23;;;;;;;11.43;100.00;98842.81;6842759;25;20690;-56
2024/04/13 00:51:53;;;;;;;8.07;4.90;;;;;;;11.43;99.35;98832.13;6831616;26;20297;-57
2024/04/13 00:54:57;;;;;;;6.03;4.87;;;;;;;11.38;100.00;98835.50;6829262;26;20753;-58
2024/04/13 00:58:00;;;;;;;5.57;4.67;;;;;;;11.41;99.12;98818.22;6833488;26;20237;-55
2024/04/13 01:01:05;;;;;;;14.87;8.30;;;;;;;11.89;94.93;98826.41;6832463;26;20286;-58
2024/04/13 01:04:09;;;;;;;5.70;5.00;;;;;;;11.93;94.88;98835.59;6781491;26;20235;-59
2024/04/13 01:07:12;;;;;;;7.30;6.00;;;;;;;11.92;95.58;98836.66;6819140;26;20295;-58
2024/04/13 01:10:16;;;;;;;10.17;6.30;;;;;;;11.93;94.88;98824.09;6833258;26;20235;-58
2024/04/13 01:13:21;;;;;;;6.63;5.23;;;;;;;11.93;96.71;98827.59;6831515;26;20280;-57
2024/04/13 01:16:30;;;;;;;7.17;6.47;;;;;;;12.73;88.83;98816.72;6818593;26;20239;-56
2024/04/13 01:19:35;;;;;;;9.53;5.47;;;;;;;12.73;90.67;98831.94;6811473;26;20231;-59
2024/04/13 01:22:43;;;;;;;5.90;5.10;;;;;;;12.54;90.73;98831.97;6826338;26;21254;-57
2024/04/13 01:25:45;;;;;;;11.37;8.37;;;;;;;12.71;88.65;98823.31;6832995;26;20230;-57
2024/04/13 01:28:48;;;;;;;9.67;5.73;;;;;;;12.67;89.95;98828.31;6845118;26;20818;-58
2024/04/13 01:31:51;;;;;;;7.87;6.43;;;;;;;12.66;90.53;98826.69;6836103;26;20271;-57
2024/04/13 01:34:54;;;;;;;7.57;5.57;;;;;;;12.64;91.17;98826.09;6820390;26;20234;-58
2024/04/13 01:37:56;;;;;;;8.77;6.83;;;;;;;12.65;90.11;98835.72;6830202;26;20287;-57
2024/04/13 01:40:59;;;;;;;11.37;7.20;;;;;;;13.31;83.90;98823.28;6832196;26;20615;-55
2024/04/13 01:44:01;;;;;;;7.17;6.10;;;;;;;13.47;82.97;98827.94;6838066;26;20280;-57
2024/04/13 01:47:05;;;;;;;7.60;5.63;;;;;;;13.21;86.69;98828.34;6834880;26;20306;-59
2024/04/13 01:50:08;;;;;;;8.50;5.67;;;;;;;12.92;87.59;98828.16;6837311;25;20352;-56
2024/04/13 01:53:13;;;;;;;7.63;5.60;;;;;;;12.83;88.30;98826.84;6830647;26;20245;-57
2024/04/13 01:56:16;;;;;;;8.17;5.80;;;;;;;12.72;89.18;98817.75;6846104;26;20288;-58
2024/04/13 01:59:18;;;;;;;6.30;5.67;;;;;;;12.67;90.76;98820.31;6800434;26;20237;-57
2024/04/13 02:02:21;;;;;;;7.37;5.33;;;;;;;12.59;91.66;98817.94;6825515;26;20231;-57
2024/04/13 02:05:23;;;;;;;8.13;6.83;;;;;;;12.45;92.27;98813.81;6825479;26;20287;-58
2024/04/13 02:08:27;;;;;;;7.77;5.70;;;;;;;12.49;92.08;98813.13;6845265;26;20289;-57
2024/04/13 02:11:30;;;;;;;8.90;7.67;;;;;;;12.93;87.29;98812.94;6826394;26;20247;-56
2024/04/13 02:14:33;;;;;;;7.37;4.80;;;;;;;12.75;89.47;98814.63;6836373;26;20330;-57
2024/04/13 02:17:35;;;;;;;7.97;6.03;;;;;;;12.60;90.80;98815.03;6832689;26;20233;-57
2024/04/13 02:20:40;;;;;;;7.93;6.50;;;;;;;12.93;87.83;98811.06;6807720;26;20284;-56
2024/04/13 02:23:43;;;;;;;9.90;8.00;;;;;;;12.95;86.32;98808.97;6850690;26;20571;-56
2024/04/13 02:26:45;;;;;;;11.07;5.97;;;;;;;12.63;89.95;98805.75;6823351;26;20280;-57
2024/04/13 02:29:49;;;;;;;9.03;5.60;;;;;;;12.59;90.60;98821.41;6832825;26;20269;-57
2024/04/13 02:32:52;;;;;;;7.60;6.23;;;;;;;12.40;91.24;98822.50;6820525;26;20692;-56
2024/04/13 02:36:02;;;;;;;8.70;6.10;;;;;;;12.33;92.14;98814.56;6805822;26;20231;-56
2024/04/13 02:39:08;;;;;;;8.10;6.13;;;;;;;12.60;89.65;98815.03;6800354;26;20711;-56
2024/04/13 02:42:10;;;;;;;7.83;6.47;;;;;;;12.48;91.77;98813.38;6807289;26;20234;-58
2024/04/13 02:45:14;;;;;;;8.93;7.97;;;;;;;12.90;87.53;98812.31;6806559;26;20238;-56
2024/04/13 02:48:17;;;;;;;7.97;5.97;;;;;;;13.00;88.19;98811.78;6801789;26;20678;-57
2024/04/13 02:51:19;;;;;;;11.03;7.53;;;;;;;13.17;86.11;98818.09;6806938;26;20226;-55
2024/04/13 02:54:22;;;;;;;10.90;7.13;;;;;;;13.25;84.96;98808.97;6806498;26;20742;-57
2024/04/13 02:57:25;;;;;;;7.33;6.33;;;;;;;13.25;85.88;98814.31;6801489;26;20749;-59
2024/04/13 03:00:28;;;;;;;8.07;5.73;;;;;;;13.33;84.50;98818.50;6806760;26;20750;-54
2024/04/13 03:03:31;;;;;;;6.57;5.87;;;;;;;13.20;86.18;98810.63;6805354;26;20293;-59
2024/04/13 03:06:34;;;;;;;8.63;5.80;;;;;;;12.98;86.21;98797.81;6806570;26;20227;-58
2024/04/13 03:09:36;;;;;;;7.40;6.60;;;;;;;13.72;81.59;98825.03;6780032;26;20582;-59
2024/04/13 03:12:39;;;;;;;8.03;6.00;;;;;;;13.62;82.17;98824.78;6806483;26;20285;-58
2024/04/13 03:15:42;;;;;;;11.33;8.67;;;;;;;14.31;74.43;98820.38;6799121;26;20250;-59
2024/04/13 03:18:46;;;;;;;7.07;6.37;;;;;;;14.46;75.80;98828.72;6806000;26;20230;-57
2024/04/13 03:21:49;;;;;;;7.87;6.60;;;;;;;14.23;77.31;98825.28;6805965;26;20231;-58
2024/04/13 03:24:52;;;;;;;9.23;7.30;;;;;;;14.08;76.92;98826.59;6806077;26;20318;-59
2024/04/13 03:27:54;;;;;;;9.97;6.73;;;;;;;13.95;77.79;98818.84;6805812;26;20303;-56
2024/04/13 03:30:57;;;;;;;9.20;6.57;;;;;;;13.81;79.35;98804.88;6795519;26;20579;-57
2024/04/13 03:34:02;;;;;;;9.53;8.53;;;;;;;14.09;75.85;98814.84;6808965;26;20257;-59
2024/04/13 03:37:07;;;;;;;9.87;7.03;;;;;;;14.05;77.62;98816.38;6820527;26;20229;-56
2024/04/13 03:40:13;;;;;;;8.03;6.07;;;;;;;13.98;79.76;98814.84;6817744;26;20308;-57
2024/04/13 03:43:16;;;;;;;7.37;6.37;;;;;;;13.76;80.15;98810.13;6818669;25;20230;-54
2024/04/13 03:46:18;;;;;;;11.07;6.47;;;;;;;13.81;80.61;98820.94;6824503;26;20235;-57
2024/04/13 03:49:21;;;;;;;8.50;6.20;;;;;;;13.66;81.66;98825.97;6831388;26;20241;-57
2024/04/13 03:52:23;;;;;;;8.57;6.13;;;;;;;13.56;83.30;98829.22;6821509;26;20241;-56
2024/04/13 03:55:26;;;;;;;8.67;6.50;;;;;;;13.55;82.11;98830.28;6808062;26;20294;-54
2024/04/13 03:58:29;;;;;;;8.10;6.60;;;;;;;13.55;82.33;98830.28;6831886;26;20275;-57
2024/04/13 04:01:33;;;;;;;9.27;6.20;;;;;;;13.47;83.70;98813.75;6832272;26;20233;-56
2024/04/13 04:04:35;;;;;;;9.23;6.57;;;;;;;13.55;82.11;98842.84;6831808;26;20632;-58
2024/04/13 04:07:38;;;;;;;6.50;5.73;;;;;;;13.49;82.48;98839.22;6835089;26;20322;-57
2024/04/13 04:10:41;;;;;;;8.43;6.27;;;;;;;13.40;83.69;98837.94;6823258;26;20348;-55
2024/04/13 04:13:44;;;;;;;8.67;6.17;;;;;;;13.15;85.43;98838.94;6829908;26;20234;-54
2024/04/13 04:16:46;;;;;;;9.53;6.60;;;;;;;13.13;84.55;98826.81;6835406;26;20235;-54
2024/04/13 04:19:49;;;;;;;9.57;7.93;;;;;;;13.55;81.00;98851.69;6836458;26;20755;-56
2024/04/13 04:22:52;;;;;;;7.73;6.30;;;;;;;13.60;82.22;98849.13;6820493;26;20227;-55
2024/04/13 04:25:54;;;;;;;8.80;6.27;;;;;;;13.67;81.93;98851.69;6827240;25;20238;-57
2024/04/13 04:28:57;;;;;;;6.90;6.20;;;;;;;13.55;83.17;98851.69;6834117;26;20234;-56
2024/04/13 04:32:01;;;;;;;9.93;8.40;;;;;;;13.62;81.15;98840.84;6844148;26;20362;-56
2024/04/13 04:35:06;;;;;;;11.13;7.53;;;;;;;13.84;81.59;98838.41;6831242;26;20238;-55
2024/04/13 04:38:11;;;;;;;9.87;7.47;;;;;;;13.78;79.96;98842.00;6819596;26;20229;-56
2024/04/13 04:41:14;;;;;;;10.33;8.57;;;;;;;13.95;77.04;98842.94;6834649;26;20281;-56
2024/04/13 04:44:17;;;;;;;8.80;7.20;;;;;;;14.25;75.68;98848.13;6832387;26;20233;-56
2024/04/13 04:47:19;;;;;;;7.47;6.57;;;;;;;13.99;78.99;98841.44;6845977;26;20333;-56
2024/04/13 04:50:22;;;;;;;9.20;6.40;;;;;;;13.48;82.08;98821.53;6842609;25;20233;-56
2024/04/13 04:53:28;;;;;;;9.57;5.73;;;;;;;13.30;84.77;98832.31;6836582;26;20284;-58
2024/04/13 04:56:31;;;;;;;6.30;5.70;;;;;;;13.30;85.88;98846.56;6831059;26;20234;-58
2024/04/13 04:59:33;;;;;;;7.17;6.43;;;;;;;13.27;86.63;98854.22;6834000;26;20234;-56
2024/04/13 05:02:36;;;;;;;7.50;6.03;;;;;;;13.16;86.51;98850.44;6837463;26;20311;-59
2024/04/13 05:05:40;;;;;;;7.07;5.90;;;;;;;13.01;88.02;98861.56;6838439;26;20318;-60
2024/04/13 05:08:45;;;;;;;7.00;5.60;;;;;;;13.45;83.76;98867.50;6834358;26;20284;-58
2024/04/13 05:11:47;;;;;;;9.70;5.97;;;;;;;13.50;84.29;98874.84;6839189;26;20231;-54
2024/04/13 05:14:50;;;;;;;7.00;5.53;;;;;;;13.49;86.21;98879.38;6815097;26;20726;-58
2024/04/13 05:17:52;;;;;;;6.40;5.50;;;;;;;13.22;87.29;98864.78;6830269;26;20234;-59
2024/04/13 05:20:55;;;;;;;9.03;5.67;;;;;;;13.00;89.64;98870.63;6831485;26;20234;-56
2024/04/13 05:23:58;;;;;;;8.20;5.83;;;;;;;12.85;91.08;98867.53;6840612;26;20964;-58
2024/04/13 05:27:05;;;;;;;5.80;5.20;;;;;;;12.91;90.65;98866.66;6844554;26;20247;-57
2024/04/13 05:30:10;;;;;;;6.77;5.67;;;;;;;12.94;90.33;98874.22;6834275;26;20238;-57
2024/04/13 05:33:13;;;;;;;6.50;5.77;;;;;;;12.96;90.51;98858.78;6834048;26;20741;-55
2024/04/13 05:36:16;;;;;;;7.03;5.40;;;;;;;13.02;91.40;98870.41;6836973;26;20276;-57
2024/04/13 05:39:18;;;;;;;10.77;6.73;;;;;;;13.34;83.13;98866.44;6818921;26;20569;-56
2024/04/13 05:42:21;;;;;;;7.60;5.77;;;;;;;13.75;81.57;98878.13;6798910;26;20350;-56
2024/04/13 05:45:24;;;;;;;5.43;4.77;;;;;;;13.77;83.44;98875.22;6829441;26;20272;-56
2024/04/13 05:48:26;;;;;;;5.77;5.13;;;;;;;13.88;83.72;98877.88;6829525;26;20276;-56
2024/04/13 05:51:29;;;;;;;10.10;6.80;;;;;;;14.23;75.94;98884.25;6845870;25;20292;-57
2024/04/13 05:54:32;;;;;;;5.47;4.70;;;;;;;14.18;81.03;98879.59;6827956;26;20283;-59
2024/04/13 05:57:35;;;;;;;5.43;4.10;;;;;;;14.08;84.62;98874.03;6830805;26;20276;-58
2024/04/13 06:00:38;;;;;;;6.23;4.20;;;;;;;13.59;87.17;98858.19;6834467;26;20249;-57
2024/04/13 06:03:40;;;;;;;6.03;4.20;;;;;;;13.53;89.07;98877.88;6841559;26;20229;-59
2024/04/13 06:06:44;;;;;;;5.97;4.10;;;;;;;13.36;90.81;98875.06;6842178;26;20233;-56
2024/04/13 06:09:47;;;;;;;6.17;4.17;;;;;;;13.33;91.50;98882.72;6817262;26;20298;-57
2024/04/13 06:12:50;;;;;;;6.13;3.87;;;;;;;13.34;92.21;98881.69;6831433;26;20226;-58
2024/04/13 06:15:53;;;;;;;6.67;4.67;;;;;;;13.53;92.75;98887.75;6792688;26;20265;-58
2024/04/13 06:18:56;;;;;;;5.53;4.53;;;;;;;13.67;88.04;98890.00;6841271;26;20238;-58
2024/04/13 06:22:02;;;;;;;5.40;4.47;;;;;;;13.79;86.33;98887.34;6843624;26;20234;-59
2024/04/13 06:25:10;;;;;;;7.97;5.50;;;;;;;13.90;86.00;98889.19;6827118;26;20233;-56
2024/04/13 06:28:14;;;;;;;10.70;7.23;;;;;;;14.51;78.62;98900.44;6792796;26;20227;-58
2024/04/13 06:31:16;;;;;;;9.60;6.20;;;;;;;14.74;79.45;98890.69;6829509;26;20282;-55
2024/04/13 06:34:19;;;;;;;9.17;5.63;;;;;;;14.91;78.80;98895.03;6846434;26;20287;-57
2024/04/13 06:37:23;;;;;;;10.10;4.97;;;;;;;14.89;78.32;98897.16;6786760;26;20706;-58
2024/04/13 06:40:26;;;;;;;8.70;4.57;;;;;;;14.87;78.02;98891.19;6800562;26;20242;-59
2024/04/13 06:43:28;;;;;;;7.90;4.77;;;;;;;14.89;79.11;98894.47;6839288;26;20230;-56
2024/04/13 06:46:31;;;;;;;10.50;4.27;;;;;;;14.87;79.54;98893.88;6832177;26;20277;-57
2024/04/13 06:49:33;;;;;;;6.17;4.30;;;;;;;14.97;78.51;98890.56;6844140;25;20230;-59
2024/04/13 06:52:36;;;;;;;5.73;4.30;;;;;;;15.12;78.03;98893.56;6828698;26;20288;-58
2024/04/13 06:55:39;;;;;;;7.27;4.30;;;;;;;15.09;78.73;98904.78;6804684;26;20271;-57
2024/04/13 06:58:43;;;;;;;5.73;4.97;;;;;;;15.18;76.93;98897.16;6816803;26;20234;-56
2024/04/13 07:01:46;;;;;;;7.87;6.20;;;;;;;15.98;66.78;98896.03;6825149;26;20365;-54
2024/04/13 07:04:50;;;;;;;6.00;5.30;;;;;;;16.07;68.86;98899.13;6793157;26;20268;-54
2024/04/13 07:07:53;;;;;;;7.73;5.37;;;;;;;16.33;65.42;98889.53;6832287;26;20280;-54
2024/04/13 07:10:56;;;;;;;7.60;6.20;;;;;;;16.57;64.93;98890.91;6829538;26;20245;-56
2024/04/13 07:13:59;;;;;;;8.13;5.90;;;;;;;16.68;63.75;98879.19;6832673;26;20277;-56
2024/04/13 07:17:02;;;;;;;6.30;5.00;;;;;;;16.83;63.64;98886.66;6833280;25;20233;-55
2024/04/13 07:20:07;;;;;;;6.20;5.40;;;;;;;17.05;61.64;98880.44;6829127;26;20239;-56
2024/04/13 07:23:09;;;;;;;7.80;5.23;;;;;;;17.35;58.38;98891.50;6824609;26;20274;-57
2024/04/13 07:26:12;;;;;;;9.70;5.23;;;;;;;17.53;58.59;98882.19;6828712;26;20316;-57
2024/04/13 07:29:14;;;;;;;7.73;5.63;;;;;;;17.63;56.66;98881.47;6831756;26;20258;-54
2024/04/13 07:32:17;;;;;;;7.70;5.53;;;;;;;17.67;55.59;98875.28;6828759;26;20242;-55
2024/04/13 07:35:19;;;;;;;6.77;5.03;;;;;;;17.78;56.87;98882.44;6816948;26;20242;-54
2024/04/13 07:38:24;;;;;;;10.47;5.70;;;;;;;17.85;54.82;98876.81;6828149;26;20239;-56
2024/04/13 07:41:26;;;;;;;9.23;6.30;;;;;;;17.95;54.74;98870.66;6834791;26;20299;-58
2024/04/13 07:44:29;;;;;;;6.27;4.60;;;;;;;18.12;57.49;98879.38;6836507;26;20314;-56
2024/04/13 07:47:31;;;;;;;6.20;4.60;;;;;;;18.07;54.71;98879.34;6828674;26;20233;-54
2024/04/13 07:50:34;;;;;;;7.53;4.60;;;;;;;18.10;54.12;98878.03;6832875;25;20233;-56
2024/04/13 07:53:37;;;;;;;6.60;4.50;;;;;;;18.31;53.63;98880.56;6804243;26;20286;-56
2024/04/13 07:56:39;;;;;;;4.37;3.57;;;;;;;18.37;53.72;98886.78;6828556;25;20237;-56
2024/04/13 07:59:42;;;;;;;7.20;4.20;;;;;;;18.29;50.75;98880.03;6830784;26;20233;-53
2024/04/13 08:02:44;;;;;;;7.10;3.33;;;;;;;18.31;53.09;98887.84;6834951;26;20234;-55
2024/04/13 08:05:47;;;;;;;8.40;3.67;;;;;;;18.26;51.44;98877.03;6835115;26;20307;-54
2024/04/13 08:08:49;;;;;;;5.47;3.50;;;;;;;18.25;51.18;98873.53;6829026;26;20344;-55
2024/04/13 08:11:52;;;;;;;4.50;3.53;;;;;;;18.56;50.63;98868.25;6825953;26;20277;-57
2024/04/13 08:14:55;;;;;;;10.70;3.90;;;;;;;18.50;50.23;98874.72;6822622;26;20245;-55
2024/04/13 08:17:57;;;;;;;7.10;3.50;;;;;;;18.50;51.15;98858.53;6835277;26;20234;-56
2024/04/13 08:21:00;;;;;;;6.70;4.13;;;;;;;18.51;50.27;98857.44;6837638;26;20225;-56
2024/04/13 08:24:03;;;;;;;7.10;3.80;;;;;;;18.50;50.37;98853.13;6825054;26;20235;-54
2024/04/13 08:27:06;;;;;;;5.13;3.10;;;;;;;18.97;51.18;98852.22;6832100;26;20241;-56
2024/04/13 08:30:11;;;;;;;6.57;3.30;;;;;;;18.90;48.48;98859.75;6822241;26;20655;-55
2024/04/13 08:33:14;;;;;;;4.80;3.47;;;;;;;19.02;48.77;98865.75;6844250;26;20280;-55
2024/04/13 08:36:16;;;;;;;5.10;2.93;;;;;;;19.14;50.09;98843.88;6825388;26;20330;-57
2024/04/13 08:39:19;;;;;;;4.33;3.07;;;;;;;19.27;46.60;98846.84;6824386;26;20237;-56
2024/04/13 08:42:34;;;;;;;7.47;3.13;;;;;;;19.38;47.88;98852.25;6843354;26;20246;-56
2024/04/13 08:45:37;;;;;;;6.93;3.13;;;;;;;19.33;46.04;98844.94;6836365;26;20277;-55
2024/04/13 08:48:40;;;;;;;4.93;2.87;;;;;;;19.53;44.22;98844.94;6835473;26;20740;-55
2024/04/13 08:51:45;;;;;;;3.87;2.70;;;;;;;19.47;44.93;98843.34;6830541;26;20222;-56
2024/04/13 08:54:50;;;;;;;4.13;2.73;;;;;;;19.47;44.03;98839.81;6838120;26;20246;-57
2024/04/13 08:57:52;;;;;;;5.67;2.73;;;;;;;19.63;46.32;98840.66;6814116;26;20342;-54
2024/04/13 09:01:00;;;;;;;5.07;3.10;;;;;;;19.49;43.71;98848.47;6831262;26;20285;-57
2024/04/13 09:04:04;;;;;;;4.13;2.63;;;;;;;19.66;45.79;98843.63;6830612;26;20320;-56
2024/04/13 09:07:07;;;;;;;5.77;3.20;;;;;;;19.58;44.73;98844.13;6830192;26;20278;-55
2024/04/13 09:10:11;;;;;;;6.17;2.63;;;;;;;19.67;45.70;98847.13;6837507;26;20309;-58
2024/04/13 09:13:14;;;;;;;5.83;2.67;;;;;;;19.70;46.84;98831.16;6842455;26;20325;-57
2024/04/13 09:16:20;;;;;;;4.17;2.57;;;;;;;19.96;45.67;98831.13;6814098;26;20230;-57
2024/04/13 09:19:23;;;;;;;2.80;2.20;;;;;;;19.93;46.68;98834.38;6826268;26;20219;-57
2024/04/13 09:22:27;;;;;;;4.20;2.70;;;;;;;20.00;42.59;98835.72;6829874;25;20234;-55
2024/04/13 09:25:29;;;;;;;2.87;2.33;;;;;;;20.10;43.84;98832.97;6830958;26;20233;-56
2024/04/13 09:28:42;;;;;;;3.83;2.30;;;;;;;20.14;41.75;98827.81;6820398;26;20222;-55
2024/04/13 09:31:44;;;;;;;4.07;2.33;;;;;;;20.25;41.93;98826.69;6825232;26;20225;-55
2024/04/13 09:34:47;;;;;;;3.20;2.47;;;;;;;20.21;45.16;98831.03;6840697;26;20285;-56
2024/04/13 09:37:59;;;;;;;4.63;2.60;;;;;;;19.95;44.58;98827.63;6820489;26;20285;-56
2024/04/13 09:41:02;;;;;;;4.87;2.70;;;;;;;20.15;44.97;98823.19;6823909;26;20234;-58
2024/04/13 09:44:04;;;;;;;5.13;3.53;;;;;;;20.33;43.04;98814.47;6833811;26;20222;-57
2024/04/13 09:47:07;;;;;;;7.37;3.10;;;;;;;20.33;44.08;98806.34;6825778;26;20281;-56
2024/04/13 09:50:12;;;;;;;5.63;3.90;;;;;;;20.38;42.61;98798.22;6822160;26;20309;-55
2024/04/13 09:53:17;;;;;;;5.30;3.20;;;;;;;20.47;43.48;98785.75;6842628;26;20277;-57
2024/04/13 09:56:21;;;;;;;4.37;2.97;;;;;;;20.50;41.95;98784.41;6796176;26;21314;-57
2024/04/13 09:59:24;;;;;;;7.10;3.97;;;;;;;20.54;40.83;98788.97;6828612;26;20281;-57
2024/04/13 10:02:28;;;;;;;5.60;3.57;;;;;;;20.66;41.83;98783.22;6810795;26;20237;-55
2024/04/13 10:05:37;;;;;;;5.90;2.93;;;;;;;20.69;40.79;98779.94;6832994;25;20241;-56
2024/04/13 10:08:39;;;;;;;4.13;3.10;;;;;;;20.71;40.97;98771.53;6826567;26;20285;-58
2024/04/13 10:11:44;;;;;;;8.27;3.10;;;;;;;20.69;42.77;98771.00;6833697;26;20242;-55
2024/04/13 10:14:50;;;;;;;4.17;2.70;;;;;;;20.74;42.55;98758.25;6812034;26;20338;-56
2024/04/13 10:17:53;;;;;;;7.03;3.77;;;;;;;20.82;39.41;98767.66;6843325;26;20948;-56
2024/04/13 10:20:56;;;;;;;5.10;2.83;;;;;;;20.72;39.80;98765.84;6835497;26;20280;-55
2024/04/13 10:23:59;;;;;;;5.33;3.10;;;;;;;20.89;39.72;98773.59;6828805;26;20269;-56
2024/04/13 10:27:09;;;;;;;3.50;2.50;;;;;;;21.03;43.70;98766.44;6833933;26;20229;-55
2024/04/13 10:30:11;;;;;;;5.80;3.57;;;;;;;21.22;39.65;98757.59;6845136;26;20325;-58
2024/04/13 10:33:18;;;;;;;6.73;3.53;;;;;;;21.17;39.47;98768.47;6832325;26;20238;-56
2024/04/13 10:36:32;;;;;;;4.93;2.93;;;;;;;21.17;39.77;98763.03;6827659;26;20230;-58
2024/04/13 10:39:35;;;;;;;6.93;3.70;;;;;;;21.40;39.31;98766.94;6838219;26;20237;-56
2024/04/13 10:42:42;;;;;;;6.70;3.97;;;;;;;21.23;39.49;98764.63;6817699;26;20227;-56
2024/04/13 10:45:58;;;;;;;4.27;3.03;;;;;;;21.41;40.87;98755.00;6819842;25;20247;-58
2024/04/13 10:49:02;;;;;;;3.90;2.47;;;;;;;21.63;38.12;98760.75;6832910;25;20779;-55
2024/04/13 10:52:05;;;;;;;2.50;2.10;;;;;;;21.70;38.77;98754.97;6841314;26;20238;-57
2024/04/13 10:55:12;;;;;;;4.70;2.50;;;;;;;21.87;41.61;98756.16;6815283;26;20234;-57
2024/04/13 10:58:15;;;;;;;5.80;2.67;;;;;;;21.73;38.08;98749.00;6816576;26;20235;-55
2024/04/13 11:01:17;;;;;;;2.77;2.00;;;;;;;21.90;37.07;98752.03;6824477;26;20229;-57
2024/04/13 11:04:25;;;;;;;5.57;2.17;;;;;;;21.71;36.71;98726.75;6826855;26;20285;-58
2024/04/13 11:07:28;;;;;;;3.73;2.20;;;;;;;21.80;36.41;98723.13;6846223;26;20234;-57
2024/04/13 11:10:31;;;;;;;6.03;2.60;;;;;;;21.83;36.43;98735.31;6806692;26;20267;-57
2024/04/13 11:13:34;;;;;;;4.50;1.80;;;;;;;21.88;37.47;98736.06;6831589;26;20554;-55
2024/04/13 11:16:41;;;;;;;4.00;2.33;;;;;;;21.91;36.90;98731.94;6832707;26;20238;-58
2024/04/13 11:19:43;;;;;;;4.33;2.27;;;;;;;22.00;39.81;98723.97;6814462;26;20230;-54
2024/04/13 11:22:46;;;;;;;2.20;2.00;;;;;;;22.17;35.64;98724.31;6838436;26;20291;-57
2024/04/13 11:25:49;;;;;;;2.87;1.80;;;;;;;22.23;37.32;98717.72;6825220;26;20241;-58
2024/04/13 11:28:52;;;;;;;2.53;1.83;;;;;;;22.14;37.58;98716.75;6829430;26;20288;-57
2024/04/13 11:31:55;;;;;;;3.73;2.00;;;;;;;22.28;38.55;98720.38;6835396;26;20239;-57
2024/04/13 11:34:58;;;;;;;2.07;1.87;;;;;;;22.16;36.46;98714.53;6843754;26;20272;-56
2024/04/13 11:38:01;;;;;;;6.97;2.10;;;;;;;22.28;37.36;98709.50;6834351;26;20238;-59
2024/04/13 11:41:04;;;;;;;4.03;2.10;;;;;;;22.34;37.36;98707.53;6829778;26;20283;-57
2024/04/13 11:44:07;;;;;;;4.83;2.20;;;;;;;22.37;35.46;98707.75;6826289;26;20284;-56
2024/04/13 11:47:10;;;;;;;4.23;2.13;;;;;;;22.30;36.10;98712.72;6832654;26;20246;-56
2024/04/13 11:50:12;;;;;;;4.00;2.27;;;;;;;22.16;36.64;98690.13;6825381;25;21073;-55
2024/04/13 11:53:15;;;;;;;3.37;1.90;;;;;;;22.20;38.01;98703.91;6820786;26;20237;-57
2024/04/13 11:56:18;;;;;;;3.00;1.60;;;;;;;22.39;39.13;98694.69;6826732;26;20239;-58
2024/04/13 11:59:23;;;;;;;4.23;1.37;;;;;;;22.23;36.03;98668.06;6844417;26;20786;-57
2024/04/13 12:02:26;;;;;;;3.20;1.60;;;;;;;22.44;35.68;98660.41;6815006;26;20271;-57
2024/04/13 12:05:30;;;;;;;2.63;1.53;;;;;;;22.62;36.03;98657.69;6803002;26;20230;-56
2024/04/13 12:08:32;;;;;;;2.00;1.40;;;;;;;22.50;35.68;98668.16;6824836;26;20279;-57
2024/04/13 12:11:35;;;;;;;2.43;1.47;;;;;;;22.70;36.41;98655.38;6830299;25;20241;-56
2024/04/13 12:14:38;;;;;;;2.47;1.20;;;;;;;22.67;35.43;98652.16;6809490;26;20302;-57
2024/04/13 12:17:54;;;;;;;3.13;1.30;;;;;;;22.51;35.03;98653.53;6833282;26;20234;-57
2024/04/13 12:20:57;;;;;;;2.23;1.43;;;;;;;22.74;37.19;98642.81;6823951;26;20231;-57
2024/04/13 12:24:00;;;;;;;3.03;1.40;;;;;;;22.88;34.10;98635.50;6818944;26;20316;-57
2024/04/13 12:27:04;;;;;;;1.53;1.20;;;;;;;22.93;34.50;98632.72;6812906;26;20285;-58
2024/04/13 12:30:07;;;;;;;1.75;0.85;;;;;;;22.76;36.02;98632.44;6827806;26;20284;-57
2024/04/13 12:33:10;;;;;;;1.63;1.15;;;;;;;22.71;35.74;98629.81;6830103;26;20276;-57
2024/04/13 12:36:13;;;;;;;3.45;0.95;;;;;;;22.69;36.25;98623.88;6820267;26;20342;-54
2024/04/13 12:39:16;;;;;;;2.50;1.27;;;;;;;22.75;36.98;98618.06;6834041;26;20245;-57
2024/04/13 12:42:20;;;;;;;1.73;1.17;;;;;;;22.73;37.34;98611.31;6839343;26;20574;-56
2024/04/13 12:45:23;;;;;;;1.63;1.20;;;;;;;22.97;35.13;98586.75;6833437;26;20238;-57
2024/04/13 12:48:25;;;;;;;2.35;1.23;;;;;;;23.04;34.76;98592.56;6837306;26;20245;-56
2024/04/13 12:51:28;;;;;;;4.72;1.50;;;;;;;23.14;36.73;98601.34;6819151;26;20246;-57
2024/04/13 12:54:31;;;;;;;2.85;1.40;;;;;;;22.98;34.42;98585.63;6838026;26;20242;-57
2024/04/13 12:57:33;;;;;;;2.00;1.20;;;;;;;23.15;34.87;98592.09;6800704;26;20298;-58
2024/04/13 13:00:36;;;;;;;3.20;1.30;;;;;;;22.98;35.31;98591.06;6830309;26;20241;-58
2024/04/13 13:03:39;;;;;;;2.05;1.17;;;;;;;23.03;36.96;98588.25;6833103;26;20334;-57
2024/04/13 13:06:41;;;;;;;1.65;1.27;;;;;;;23.16;33.81;98587.47;6823286;26;20229;-56
2024/04/13 13:09:44;;;;;;;3.67;1.25;;;;;;;23.20;33.79;98590.34;6838719;26;20241;-57
2024/04/13 13:12:47;;;;;;;1.67;1.08;;;;;;;23.00;35.12;98583.41;6800477;26;20343;-57
2024/04/13 13:15:49;;;;;;;1.73;0.88;;;;;;;23.01;36.25;98596.72;6837117;26;20226;-58
2024/04/13 13:18:52;;;;;;;2.20;1.13;;;;;;;22.83;34.50;98583.97;6839450;26;20233;-57
2024/04/13 13:21:55;;;;;;;1.75;1.02;;;;;;;22.78;35.67;98571.28;6821872;26;20277;-57
2024/04/13 13:24:58;;;;;;;5.22;1.20;;;;;;;22.89;35.28;98570.00;6826274;26;20287;-55
2024/04/13 13:28:02;;;;;;;2.33;1.08;;;;;;;22.81;35.32;98559.81;6796075;26;20309;-56
2024/04/13 13:31:05;;;;;;;3.08;1.17;;;;;;;22.96;34.82;98550.63;6814241;26;20234;-58
2024/04/13 13:34:09;;;;;;;2.08;1.23;;;;;;;23.15;35.38;98542.34;6836134;25;20488;-57
2024/04/13 13:37:11;;;;;;;0.93;0.80;;;;;;;23.06;34.81;98541.47;6830598;26;20249;-57
2024/04/13 13:40:15;;;;;;;1.73;1.00;;;;;;;23.03;37.05;98544.75;6833848;26;20309;-57
2024/04/13 13:43:17;;;;;;;4.88;1.20;;;;;;;22.89;34.90;98537.41;6843681;26;20241;-57
2024/04/13 13:46:20;;;;;;;3.13;0.80;;;;;;;22.95;35.20;98527.25;6848752;26;20230;-58
2024/04/13 13:49:22;;;;;;;1.60;0.90;;;;;;;22.87;35.11;98526.00;6836185;26;20283;-56
2024/04/13 13:52:26;;;;;;;3.33;1.00;;;;;;;22.88;35.03;98530.38;6836906;26;20273;-56
2024/04/13 13:55:31;;;;;;;3.40;0.95;;;;;;;22.95;35.05;98524.53;6822557;26;20294;-56
2024/04/13 13:58:33;;;;;;;0.68;0.68;;;;;;;23.06;35.53;98523.22;6818462;26;20246;-55
2024/04/13 14:01:36;;;;;;;2.38;1.02;;;;;;;22.98;34.08;98504.09;6831143;26;20235;-56
2024/04/13 14:04:38;;;;;;;1.15;0.68;;;;;;;23.09;33.72;98503.59;6831726;26;20221;-56
2024/04/13 14:07:41;;;;;;;1.70;0.98;;;;;;;22.95;36.20;98507.41;6835893;26;20271;-58
2024/04/13 14:10:43;;;;;;;2.03;0.90;;;;;;;22.96;34.52;98503.63;6831042;26;20310;-55
2024/04/13 14:13:46;;;;;;;1.00;0.90;;;;;;;22.96;33.84;98493.53;6827439;26;20281;-54
2024/04/13 14:16:49;;;;;;;1.50;0.90;;;;;;;23.18;33.44;98490.88;6826059;26;20239;-59
2024/04/13 14:19:52;;;;;;;0.93;0.70;;;;;;;23.00;36.05;98480.13;6828434;26;20222;-57
2024/04/13 14:22:54;;;;;;;1.67;0.68;;;;;;;22.81;37.33;98483.75;6844016;26;20225;-56